createdAt,value
2022-08-26T00:00:55.069Z,18.9
2022-08-26T00:01:55.102Z,18.9
2022-08-26T00:02:55.071Z,18.9
2022-08-26T00:03:55.116Z,18.9
2022-08-26T00:04:55.034Z,18.8
2022-08-26T00:05:55.069Z,18.8
2022-08-26T00:06:55.645Z,18.8
2022-08-26T00:07:55.320Z,18.8
2022-08-26T00:08:55.408Z,18.8
2022-08-26T00:09:55.888Z,18.8
2022-08-26T00:10:56.219Z,18.8
2022-08-26T00:11:55.689Z,18.7
2022-08-26T00:12:55.104Z,18.7
2022-08-26T00:13:55.067Z,18.7
2022-08-26T00:14:55.078Z,18.7
2022-08-26T00:15:55.109Z,18.5
2022-08-26T00:16:55.164Z,18.5
2022-08-26T00:17:55.058Z,18.5
2022-08-26T00:18:55.067Z,18.4
2022-08-26T00:19:55.061Z,18.5
2022-08-26T00:20:55.096Z,18.4
2022-08-26T00:21:55.064Z,18.4
2022-08-26T00:22:55.070Z,18.4
2022-08-26T00:23:55.070Z,18.4
2022-08-26T00:24:55.070Z,18.4
2022-08-26T00:25:55.112Z,18.3
2022-08-26T00:26:55.072Z,18.3
2022-08-26T00:27:55.064Z,18.3
2022-08-26T00:28:55.096Z,18.3
2022-08-26T00:29:55.087Z,18.3
2022-08-26T00:30:55.075Z,18.3
2022-08-26T00:31:55.082Z,18.2
2022-08-26T00:32:55.042Z,18.2
2022-08-26T00:33:55.108Z,18.2
2022-08-26T00:34:55.400Z,18.2
2022-08-26T00:35:55.141Z,18.2
2022-08-26T00:36:55.053Z,18.2
2022-08-26T00:37:55.410Z,18.2
2022-08-26T00:38:55.190Z,18.2
2022-08-26T00:39:55.530Z,18.2
2022-08-26T00:40:55.083Z,18.2
2022-08-26T00:41:55.304Z,18.2
2022-08-26T00:42:56.042Z,18.2
2022-08-26T00:43:55.492Z,18.2
2022-08-26T00:44:55.126Z,18.2
2022-08-26T00:45:55.175Z,18.1
2022-08-26T00:46:55.154Z,18.1
2022-08-26T00:47:55.054Z,18.1
2022-08-26T00:48:55.103Z,18.1
2022-08-26T00:49:55.125Z,18.1
2022-08-26T00:50:55.396Z,18.1
2022-08-26T00:51:55.606Z,18.1
2022-08-26T00:52:55.854Z,18.1
2022-08-26T00:53:56.240Z,18.1
2022-08-26T00:54:55.056Z,18.1
2022-08-26T00:55:55.359Z,18.1
2022-08-26T00:56:55.324Z,18.1
2022-08-26T00:57:55.050Z,18.1
2022-08-26T00:58:55.260Z,18.1
2022-08-26T00:59:55.420Z,18.1
2022-08-26T01:00:55.081Z,18.1
2022-08-26T01:01:55.093Z,18.1
2022-08-26T01:02:55.131Z,18.1
2022-08-26T01:03:55.380Z,18.2
2022-08-26T01:04:56.079Z,18.1
2022-08-26T01:05:55.056Z,18.1
2022-08-26T01:06:55.282Z,18.2
2022-08-26T01:07:55.087Z,18.2
2022-08-26T01:08:55.079Z,18.2
2022-08-26T01:09:55.384Z,18.1
2022-08-26T01:10:55.831Z,18.2
2022-08-26T01:11:55.053Z,18.1
2022-08-26T01:12:55.063Z,18.1
2022-08-26T01:13:55.063Z,18.2
2022-08-26T01:14:55.075Z,18.1
2022-08-26T01:15:55.103Z,18.1
2022-08-26T01:16:55.094Z,18.1
2022-08-26T01:17:55.079Z,18.1
2022-08-26T01:18:55.078Z,18.2
2022-08-26T01:19:55.064Z,18.2
2022-08-26T01:20:57.631Z,18.2
2022-08-26T01:21:55.060Z,18.2
2022-08-26T01:22:55.109Z,18.2
2022-08-26T01:23:57.322Z,18.3
2022-08-26T01:24:55.070Z,18.3
2022-08-26T01:25:55.059Z,18.3
2022-08-26T01:26:55.093Z,18.3
2022-08-26T01:27:55.061Z,18.3
2022-08-26T01:28:55.088Z,18.3
2022-08-26T01:29:55.058Z,18.3
2022-08-26T01:30:55.057Z,18.3
2022-08-26T01:31:55.111Z,18.3
2022-08-26T01:32:55.059Z,18.3
2022-08-26T01:33:55.102Z,18.2
2022-08-26T01:34:55.072Z,18.3
2022-08-26T01:35:55.073Z,18.2
2022-08-26T01:36:55.070Z,18.2
2022-08-26T01:37:55.058Z,18.2
2022-08-26T01:38:55.067Z,18.2
2022-08-26T01:39:55.083Z,18.2
2022-08-26T01:40:55.058Z,18.2
2022-08-26T01:41:55.072Z,18.2
2022-08-26T01:42:55.055Z,18.2
2022-08-26T01:43:55.071Z,18.2
2022-08-26T01:44:55.061Z,18.2
2022-08-26T01:45:55.142Z,18.2
2022-08-26T01:46:55.091Z,18.2
2022-08-26T01:47:56.580Z,18.1
2022-08-26T01:48:55.050Z,18.1
2022-08-26T01:49:55.058Z,18.1
2022-08-26T01:50:55.109Z,18.1
2022-08-26T01:51:55.063Z,18.1
2022-08-26T01:52:55.070Z,18.1
2022-08-26T01:53:55.062Z,18.1
2022-08-26T01:54:55.074Z,18.1
2022-08-26T01:55:55.082Z,18.1
2022-08-26T01:56:55.068Z,18.1
2022-08-26T01:57:56.243Z,18.1
2022-08-26T01:58:55.133Z,18.1
2022-08-26T01:59:55.073Z,18.1
2022-08-26T02:00:55.126Z,18.1
2022-08-26T02:01:55.069Z,18.1
2022-08-26T02:02:55.059Z,18.1
2022-08-26T02:03:55.076Z,18.2
2022-08-26T02:04:55.101Z,18.1
2022-08-26T02:05:55.105Z,18.2
2022-08-26T02:06:55.062Z,18.2
2022-08-26T02:07:55.083Z,18.2
2022-08-26T02:08:55.072Z,18.2
2022-08-26T02:09:55.187Z,18.2
2022-08-26T02:10:55.248Z,18.2
2022-08-26T02:11:55.075Z,18.2
2022-08-26T02:12:55.079Z,18.1
2022-08-26T02:13:55.057Z,18.1
2022-08-26T02:14:55.073Z,18.1
2022-08-26T02:15:55.151Z,18.1
2022-08-26T02:16:55.085Z,18.1
2022-08-26T02:17:55.074Z,18.1
2022-08-26T02:18:55.085Z,18.1
2022-08-26T02:19:55.069Z,18
2022-08-26T02:20:55.122Z,18.1
2022-08-26T02:21:55.066Z,18
2022-08-26T02:22:55.068Z,18
2022-08-26T02:23:55.418Z,18
2022-08-26T02:24:55.058Z,17.9
2022-08-26T02:25:55.139Z,18
2022-08-26T02:26:55.053Z,17.9
2022-08-26T02:27:55.155Z,17.9
2022-08-26T02:28:55.083Z,17.9
2022-08-26T02:29:55.370Z,17.9
2022-08-26T02:30:55.697Z,17.9
2022-08-26T02:31:55.256Z,17.9
2022-08-26T02:32:55.301Z,17.9
2022-08-26T02:33:55.089Z,17.9
2022-08-26T02:34:55.076Z,17.9
2022-08-26T02:35:55.060Z,17.9
2022-08-26T02:36:55.070Z,17.8
2022-08-26T02:37:55.079Z,17.9
2022-08-26T02:38:55.072Z,17.9
2022-08-26T02:39:55.136Z,17.9
2022-08-26T02:40:55.081Z,17.9
2022-08-26T02:41:55.107Z,17.9
2022-08-26T02:42:55.912Z,17.9
2022-08-26T02:43:55.063Z,17.9
2022-08-26T02:44:55.075Z,17.9
2022-08-26T02:45:55.071Z,17.8
2022-08-26T02:46:55.098Z,17.8
2022-08-26T02:47:55.068Z,17.8
2022-08-26T02:48:55.083Z,17.8
2022-08-26T02:49:55.074Z,17.8
2022-08-26T02:50:55.083Z,17.7
2022-08-26T02:51:55.071Z,17.7
2022-08-26T02:52:55.076Z,17.7
2022-08-26T02:53:55.058Z,17.6
2022-08-26T02:54:55.077Z,17.6
2022-08-26T02:55:55.062Z,17.6
2022-08-26T02:56:55.068Z,17.6
2022-08-26T02:57:55.069Z,17.6
2022-08-26T02:58:55.091Z,17.6
2022-08-26T02:59:55.065Z,17.5
2022-08-26T03:00:55.097Z,17.5
2022-08-26T03:01:55.990Z,17.5
2022-08-26T03:02:55.068Z,17.5
2022-08-26T03:03:55.115Z,17.5
2022-08-26T03:04:57.547Z,17.5
2022-08-26T03:05:55.075Z,17.5
2022-08-26T03:06:55.360Z,17.5
2022-08-26T03:07:55.127Z,17.5
2022-08-26T03:08:55.088Z,17.5
2022-08-26T03:09:55.063Z,17.5
2022-08-26T03:10:55.069Z,17.5
2022-08-26T03:11:55.060Z,17.4
2022-08-26T03:12:55.072Z,17.4
2022-08-26T03:13:55.104Z,17.4
2022-08-26T03:14:55.093Z,17.4
2022-08-26T03:15:55.108Z,17.4
2022-08-26T03:16:55.057Z,17.4
2022-08-26T03:17:55.069Z,17.4
2022-08-26T03:18:55.096Z,17.4
2022-08-26T03:19:57.154Z,17.4
2022-08-26T03:20:55.058Z,17.3
2022-08-26T03:21:58.227Z,17.3
2022-08-26T03:22:56.289Z,17.3
2022-08-26T03:23:55.158Z,17.3
2022-08-26T03:24:55.118Z,17.3
2022-08-26T03:25:55.705Z,17.3
2022-08-26T03:26:55.684Z,17.3
2022-08-26T03:27:55.059Z,17.3
2022-08-26T03:28:55.097Z,17.3
2022-08-26T03:29:55.053Z,17.3
2022-08-26T03:30:55.099Z,17.3
2022-08-26T03:31:55.064Z,17.3
2022-08-26T03:32:55.060Z,17.3
2022-08-26T03:33:58.810Z,17.3
2022-08-26T03:34:55.073Z,17.4
2022-08-26T03:35:55.072Z,17.3
2022-08-26T03:36:55.083Z,17.3
2022-08-26T03:37:55.092Z,17.4
2022-08-26T03:38:55.036Z,17.4
2022-08-26T03:39:55.075Z,17.4
2022-08-26T03:40:55.034Z,17.4
2022-08-26T03:41:55.128Z,17.4
2022-08-26T03:42:55.077Z,17.4
2022-08-26T03:43:58.472Z,17.4
2022-08-26T03:44:55.037Z,17.4
2022-08-26T03:45:55.160Z,17.4
2022-08-26T03:46:55.198Z,17.4
2022-08-26T03:47:55.522Z,17.4
2022-08-26T03:48:55.853Z,17.4
2022-08-26T03:49:55.396Z,17.4
2022-08-26T03:50:55.136Z,17.4
2022-08-26T03:51:55.339Z,17.4
2022-08-26T03:52:55.075Z,17.4
2022-08-26T03:53:55.059Z,17.4
2022-08-26T03:54:55.061Z,17.4
2022-08-26T03:55:55.032Z,17.4
2022-08-26T03:56:55.110Z,17.4
2022-08-26T03:57:55.035Z,17.4
2022-08-26T03:58:55.081Z,17.4
2022-08-26T03:59:55.095Z,17.4
2022-08-26T04:00:55.489Z,17.4
2022-08-26T04:01:55.157Z,17.4
2022-08-26T04:02:55.125Z,17.4
2022-08-26T04:03:55.062Z,17.3
2022-08-26T04:04:55.044Z,17.4
2022-08-26T04:05:55.131Z,17.4
2022-08-26T04:06:55.061Z,17.4
2022-08-26T04:07:55.063Z,17.4
2022-08-26T04:08:55.186Z,17.4
2022-08-26T04:09:55.190Z,17.4
2022-08-26T04:10:55.507Z,17.4
2022-08-26T04:11:55.073Z,17.4
2022-08-26T04:12:55.145Z,17.4
2022-08-26T04:13:55.030Z,17.4
2022-08-26T04:14:55.280Z,17.4
2022-08-26T04:15:55.519Z,17.4
2022-08-26T04:16:55.320Z,17.4
2022-08-26T04:17:55.777Z,17.4
2022-08-26T04:18:55.071Z,17.4
2022-08-26T04:19:55.221Z,17.4
2022-08-26T04:20:55.067Z,17.4
2022-08-26T04:21:55.073Z,17.4
2022-08-26T04:22:55.164Z,17.4
2022-08-26T04:23:55.362Z,17.4
2022-08-26T04:24:55.060Z,17.5
2022-08-26T04:25:55.066Z,17.4
2022-08-26T04:26:55.057Z,17.5
2022-08-26T04:27:55.078Z,17.4
2022-08-26T04:28:55.102Z,17.4
2022-08-26T04:29:55.245Z,17.4
2022-08-26T04:30:55.097Z,17.4
2022-08-26T04:31:55.411Z,17.4
2022-08-26T04:32:55.071Z,17.4
2022-08-26T04:33:55.079Z,17.4
2022-08-26T04:34:55.068Z,17.3
2022-08-26T04:35:55.074Z,17.3
2022-08-26T04:36:55.064Z,17.3
2022-08-26T04:37:55.069Z,17.3
2022-08-26T04:38:55.083Z,17.3
2022-08-26T04:39:55.112Z,17.2
2022-08-26T04:40:55.063Z,17.3
2022-08-26T04:41:55.098Z,17.2
2022-08-26T04:42:55.064Z,17.2
2022-08-26T04:43:55.077Z,17.2
2022-08-26T04:44:55.067Z,17.2
2022-08-26T04:45:55.068Z,17.2
2022-08-26T04:46:55.118Z,17.2
2022-08-26T04:47:55.046Z,17.2
2022-08-26T04:48:55.074Z,17.2
2022-08-26T04:49:55.086Z,17.2
2022-08-26T04:50:55.069Z,17.2
2022-08-26T04:51:55.080Z,17.2
2022-08-26T04:52:55.086Z,17.2
2022-08-26T04:53:55.061Z,17.2
2022-08-26T04:54:55.059Z,17.2
2022-08-26T04:55:55.177Z,17.2
2022-08-26T04:56:55.071Z,17
2022-08-26T04:57:55.062Z,17
2022-08-26T04:58:55.070Z,17.2
2022-08-26T04:59:55.066Z,17.2
2022-08-26T05:00:55.067Z,17.2
2022-08-26T05:01:55.092Z,17.2
2022-08-26T05:02:55.248Z,17.2
2022-08-26T05:03:55.094Z,17.2
2022-08-26T05:04:55.061Z,17.2
2022-08-26T05:05:55.062Z,17.2
2022-08-26T05:06:59.349Z,17.2
2022-08-26T05:07:55.055Z,17.2
2022-08-26T05:08:55.080Z,17.2
2022-08-26T05:09:55.052Z,17.2
2022-08-26T05:10:55.069Z,17.2
2022-08-26T05:11:55.065Z,17.3
2022-08-26T05:12:55.061Z,17.3
2022-08-26T05:13:56.568Z,17.3
2022-08-26T05:14:55.061Z,17.3
2022-08-26T05:15:55.728Z,17.3
2022-08-26T05:16:55.062Z,17.3
2022-08-26T05:17:55.062Z,17.3
2022-08-26T05:18:55.070Z,17.3
2022-08-26T05:19:55.081Z,17.3
2022-08-26T05:20:55.087Z,17.3
2022-08-26T05:21:55.071Z,17.3
2022-08-26T05:22:55.069Z,17.3
2022-08-26T05:23:55.081Z,17.3
2022-08-26T05:24:55.076Z,17.3
2022-08-26T05:25:59.062Z,17.3
2022-08-26T05:26:55.099Z,17.3
2022-08-26T05:27:55.069Z,17.3
2022-08-26T05:28:55.096Z,17.3
2022-08-26T05:29:55.074Z,17.3
2022-08-26T05:30:55.118Z,17.4
2022-08-26T05:31:55.944Z,17.4
2022-08-26T05:32:55.449Z,17.4
2022-08-26T05:33:55.077Z,17.5
2022-08-26T05:34:55.069Z,17.5
2022-08-26T05:35:55.190Z,17.5
2022-08-26T05:36:55.093Z,17.5
2022-08-26T05:37:55.071Z,17.6
2022-08-26T05:38:55.032Z,17.6
2022-08-26T05:39:55.125Z,17.6
2022-08-26T05:40:55.076Z,17.7
2022-08-26T05:41:55.077Z,17.7
2022-08-26T05:42:55.067Z,17.7
2022-08-26T05:43:55.250Z,17.8
2022-08-26T05:44:56.265Z,17.8
2022-08-26T05:45:55.138Z,17.8
2022-08-26T05:46:55.237Z,17.9
2022-08-26T05:47:55.127Z,17.9
2022-08-26T05:48:55.366Z,18
2022-08-26T05:49:55.060Z,18
2022-08-26T05:50:55.081Z,18
2022-08-26T05:51:55.066Z,18.1
2022-08-26T05:52:55.060Z,18.1
2022-08-26T05:53:55.127Z,18.1
2022-08-26T05:54:55.058Z,18.1
2022-08-26T05:55:55.072Z,18.2
2022-08-26T05:56:55.075Z,18.2
2022-08-26T05:57:55.066Z,18.2
2022-08-26T05:58:55.072Z,18.3
2022-08-26T05:59:55.064Z,18.3
2022-08-26T06:00:55.061Z,18.3
2022-08-26T06:01:55.369Z,18.4
2022-08-26T06:02:55.094Z,18.4
2022-08-26T06:03:55.058Z,18.5
2022-08-26T06:04:55.072Z,18.5
2022-08-26T06:05:55.054Z,18.5
2022-08-26T06:06:55.058Z,18.5
2022-08-26T06:07:55.062Z,18.7
2022-08-26T06:08:55.087Z,18.7
2022-08-26T06:10:05.483Z,18.7
2022-08-26T06:10:55.059Z,18.7
2022-08-26T06:11:55.062Z,18.8
2022-08-26T06:12:55.055Z,18.8
2022-08-26T06:13:55.816Z,18.8
2022-08-26T06:14:55.062Z,18.9
2022-08-26T06:15:55.074Z,18.9
2022-08-26T06:16:55.071Z,18.9
2022-08-26T06:17:55.045Z,19
2022-08-26T06:18:55.066Z,19
2022-08-26T06:19:55.071Z,19
2022-08-26T06:20:57.565Z,19.1
2022-08-26T06:21:55.115Z,19.1
2022-08-26T06:22:55.061Z,19.1
2022-08-26T06:23:55.063Z,19.2
2022-08-26T06:24:55.063Z,19.2
2022-08-26T06:25:55.065Z,19.2
2022-08-26T06:26:55.065Z,19.3
2022-08-26T06:27:55.049Z,19.3
2022-08-26T06:28:55.071Z,19.3
2022-08-26T06:29:55.115Z,19.4
2022-08-26T06:30:55.080Z,19.4
2022-08-26T06:31:56.120Z,19.5
2022-08-26T06:32:55.059Z,19.5
2022-08-26T06:33:55.069Z,19.5
2022-08-26T06:34:55.047Z,19.5
2022-08-26T06:35:55.207Z,19.5
2022-08-26T06:36:55.764Z,19.7
2022-08-26T06:37:55.804Z,19.7
2022-08-26T06:38:56.114Z,19.7
2022-08-26T06:39:56.686Z,19.7
2022-08-26T06:40:55.743Z,19.8
2022-08-26T06:41:55.061Z,19.8
2022-08-26T06:42:55.058Z,19.8
2022-08-26T06:43:55.062Z,19.8
2022-08-26T06:44:55.055Z,19.9
2022-08-26T06:45:55.094Z,19.9
2022-08-26T06:46:55.084Z,19.9
2022-08-26T06:47:55.069Z,19.9
2022-08-26T06:48:55.087Z,20
2022-08-26T06:49:55.128Z,20
2022-08-26T06:50:55.061Z,20
2022-08-26T06:51:55.090Z,20.1
2022-08-26T06:52:55.058Z,20.1
2022-08-26T06:53:55.057Z,20.1
2022-08-26T06:54:55.065Z,20.2
2022-08-26T06:55:55.065Z,20.2
2022-08-26T06:56:55.083Z,20.3
2022-08-26T06:57:55.060Z,20.3
2022-08-26T06:58:55.062Z,20.5
2022-08-26T06:59:55.115Z,20.5
2022-08-26T07:00:56.805Z,20.6
2022-08-26T07:01:55.246Z,20.6
2022-08-26T07:02:55.141Z,20.7
2022-08-26T07:03:55.050Z,20.8
2022-08-26T07:04:56.814Z,20.8
2022-08-26T07:05:55.065Z,20.8
2022-08-26T07:06:55.105Z,20.9
2022-08-26T07:07:55.064Z,20.9
2022-08-26T07:08:55.075Z,20.9
2022-08-26T07:09:55.132Z,20.9
2022-08-26T07:10:55.921Z,20.9
2022-08-26T07:11:55.085Z,21
2022-08-26T07:12:55.041Z,21
2022-08-26T07:13:55.081Z,21
2022-08-26T07:14:55.063Z,21
2022-08-26T07:15:57.407Z,21
2022-08-26T07:16:55.083Z,21.2
2022-08-26T07:17:55.052Z,21.2
2022-08-26T07:18:55.064Z,21.2
2022-08-26T07:19:55.032Z,21.2
2022-08-26T07:20:55.156Z,21
2022-08-26T07:21:55.097Z,21
2022-08-26T07:22:55.080Z,21.2
2022-08-26T07:23:58.772Z,21.2
2022-08-26T07:24:55.342Z,21.2
2022-08-26T07:25:55.045Z,21.3
2022-08-26T07:26:55.269Z,21.3
2022-08-26T07:27:55.099Z,21.3
2022-08-26T07:28:55.029Z,21.4
2022-08-26T07:29:55.173Z,21.4
2022-08-26T07:30:55.086Z,21.4
2022-08-26T07:31:56.298Z,21.4
2022-08-26T07:32:55.050Z,21.5
2022-08-26T07:33:55.067Z,21.5
2022-08-26T07:34:55.175Z,21.5
2022-08-26T07:35:55.061Z,21.5
2022-08-26T07:36:55.234Z,21.5
2022-08-26T07:37:57.118Z,21.5
2022-08-26T07:38:55.377Z,21.5
2022-08-26T07:39:55.101Z,21.6
2022-08-26T07:40:55.049Z,21.6
2022-08-26T07:41:55.074Z,21.6
2022-08-26T07:42:55.186Z,21.6
2022-08-26T07:43:55.053Z,21.6
2022-08-26T07:44:55.073Z,21.6
2022-08-26T07:45:55.071Z,21.6
2022-08-26T07:46:55.058Z,21.6
2022-08-26T07:47:55.053Z,21.5
2022-08-26T07:48:55.066Z,21.6
2022-08-26T07:49:55.079Z,21.5
2022-08-26T07:50:55.078Z,21.5
2022-08-26T07:51:55.061Z,21.5
2022-08-26T07:52:55.077Z,21.5
2022-08-26T07:53:55.060Z,21.5
2022-08-26T07:54:55.073Z,21.5
2022-08-26T07:55:55.057Z,21.6
2022-08-26T07:56:55.840Z,21.6
2022-08-26T07:57:55.053Z,21.6
2022-08-26T07:58:55.102Z,21.6
2022-08-26T07:59:55.363Z,21.6
2022-08-26T08:00:55.047Z,21.6
2022-08-26T08:01:55.122Z,21.6
2022-08-26T08:02:55.065Z,21.6
2022-08-26T08:03:55.101Z,21.6
2022-08-26T08:04:55.178Z,21.6
2022-08-26T08:05:55.077Z,21.6
2022-08-26T08:06:55.063Z,21.6
2022-08-26T08:08:19.655Z,21.6
2022-08-26T08:08:55.095Z,21.6
2022-08-26T08:09:55.054Z,21.8
2022-08-26T08:10:55.054Z,21.8
2022-08-26T08:11:55.062Z,21.8
2022-08-26T08:12:55.053Z,21.8
2022-08-26T08:13:56.191Z,21.8
2022-08-26T08:14:55.066Z,21.8
2022-08-26T08:15:55.212Z,21.8
2022-08-26T08:16:55.145Z,21.8
2022-08-26T08:17:57.706Z,21.8
2022-08-26T08:18:55.356Z,21.8
2022-08-26T08:19:55.052Z,21.8
2022-08-26T08:21:05.164Z,21.8
2022-08-26T08:21:55.059Z,21.8
2022-08-26T08:22:55.055Z,21.8
2022-08-26T08:23:55.047Z,21.8
2022-08-26T08:24:55.079Z,21.8
2022-08-26T08:25:55.074Z,21.8
2022-08-26T08:26:55.171Z,21.8
2022-08-26T08:27:55.057Z,21.8
2022-08-26T08:28:55.059Z,21.8
2022-08-26T08:29:55.123Z,21.8
2022-08-26T08:30:55.116Z,21.8
2022-08-26T08:31:56.307Z,21.8
2022-08-26T08:32:55.089Z,21.8
2022-08-26T08:33:55.032Z,21.8
2022-08-26T08:34:55.145Z,21.8
2022-08-26T08:35:55.058Z,21.8
2022-08-26T08:36:55.026Z,21.8
2022-08-26T08:37:55.207Z,21.8
2022-08-26T08:38:55.039Z,21.8
2022-08-26T08:39:55.172Z,21.8
2022-08-26T08:40:55.367Z,21.8
2022-08-26T08:41:55.107Z,21.8
2022-08-26T08:42:55.346Z,21.8
2022-08-26T08:43:55.686Z,21.8
2022-08-26T08:44:55.462Z,21.8
2022-08-26T08:45:55.131Z,21.8
2022-08-26T08:46:55.035Z,21.8
2022-08-26T08:47:55.081Z,21.8
2022-08-26T08:48:55.360Z,21.8
2022-08-26T08:49:56.155Z,21.9
2022-08-26T08:50:55.400Z,21.9
2022-08-26T08:51:55.024Z,21.9
2022-08-26T08:52:55.115Z,21.9
2022-08-26T08:53:55.095Z,21.9
2022-08-26T08:54:55.157Z,21.9
2022-08-26T08:55:55.337Z,21.9
2022-08-26T08:56:55.171Z,21.9
2022-08-26T08:57:55.440Z,22
2022-08-26T08:58:56.665Z,22
2022-08-26T08:59:55.178Z,22
2022-08-26T09:00:55.216Z,22
2022-08-26T09:01:55.311Z,22
2022-08-26T09:02:55.069Z,22
2022-08-26T09:03:55.065Z,22
2022-08-26T09:04:55.090Z,22
2022-08-26T09:05:55.202Z,22
2022-08-26T09:06:55.089Z,22
2022-08-26T09:07:55.108Z,22
2022-08-26T09:08:55.065Z,22
2022-08-26T09:09:55.107Z,22.1
2022-08-26T09:10:55.075Z,22.1
2022-08-26T09:11:55.067Z,22.1
2022-08-26T09:12:55.056Z,22.3
2022-08-26T09:13:55.056Z,22.3
2022-08-26T09:14:55.094Z,22.4
2022-08-26T09:15:55.106Z,22.4
2022-08-26T09:16:55.125Z,22.4
2022-08-26T09:17:55.065Z,22.5
2022-08-26T09:18:55.064Z,22.5
2022-08-26T09:19:55.079Z,22.5
2022-08-26T09:20:55.052Z,22.6
2022-08-26T09:21:55.078Z,22.6
2022-08-26T09:22:55.064Z,22.7
2022-08-26T09:23:55.186Z,22.7
2022-08-26T09:24:55.069Z,22.7
2022-08-26T09:26:55.058Z,22.7
2022-08-26T09:27:55.059Z,22.7
2022-08-26T09:28:55.066Z,22.7
2022-08-26T09:29:55.078Z,22.7
2022-08-26T09:30:55.133Z,22.7
2022-08-26T09:31:55.050Z,22.7
2022-08-26T09:32:55.809Z,22.7
2022-08-26T09:33:55.075Z,22.7
2022-08-26T09:34:55.088Z,22.7
2022-08-26T09:35:55.055Z,22.7
2022-08-26T09:36:55.070Z,22.7
2022-08-26T09:37:55.054Z,22.7
2022-08-26T09:38:55.077Z,22.9
2022-08-26T09:39:55.116Z,22.9
2022-08-26T09:40:56.225Z,22.9
2022-08-26T09:41:55.057Z,22.7
2022-08-26T09:42:55.065Z,22.7
2022-08-26T09:43:55.053Z,22.7
2022-08-26T09:44:55.065Z,22.7
2022-08-26T09:45:58.549Z,22.7
2022-08-26T09:46:55.147Z,22.7
2022-08-26T09:47:55.061Z,22.9
2022-08-26T09:48:55.068Z,22.9
2022-08-26T09:49:55.045Z,22.9
2022-08-26T09:50:55.264Z,23
2022-08-26T09:51:55.628Z,23
2022-08-26T09:52:55.884Z,23
2022-08-26T09:53:56.210Z,23
2022-08-26T09:54:55.569Z,23
2022-08-26T09:55:55.071Z,23
2022-08-26T09:56:55.108Z,23.1
2022-08-26T09:57:55.061Z,23
2022-08-26T09:58:55.070Z,23.1
2022-08-26T09:59:55.060Z,23.1
2022-08-26T10:00:55.117Z,23.1
2022-08-26T10:01:55.203Z,23.1
2022-08-26T10:02:57.863Z,23.1
2022-08-26T10:03:55.133Z,23.1
2022-08-26T10:04:55.056Z,23.1
2022-08-26T10:05:55.117Z,23.2
2022-08-26T10:06:55.113Z,23.2
2022-08-26T10:07:55.075Z,23.2
2022-08-26T10:08:55.238Z,23.4
2022-08-26T10:09:55.070Z,23.5
2022-08-26T10:10:55.063Z,23.6
2022-08-26T10:11:55.082Z,23.6
2022-08-26T10:12:55.050Z,23.8
2022-08-26T10:13:55.062Z,23.9
2022-08-26T10:14:55.074Z,24
2022-08-26T10:15:55.069Z,23.9
2022-08-26T10:16:55.136Z,24
2022-08-26T10:17:55.072Z,24
2022-08-26T10:18:58.151Z,24
2022-08-26T10:19:56.447Z,24.1
2022-08-26T10:20:55.082Z,24.1
2022-08-26T10:21:55.119Z,24.3
2022-08-26T10:22:55.074Z,24.3
2022-08-26T10:23:55.064Z,24.3
2022-08-26T10:24:55.435Z,24.4
2022-08-26T10:25:55.292Z,24.4
2022-08-26T10:26:55.091Z,24.4
2022-08-26T10:27:55.075Z,24.4
2022-08-26T10:28:55.068Z,24.4
2022-08-26T10:29:55.085Z,24.4
2022-08-26T10:30:55.211Z,24.5
2022-08-26T10:31:55.099Z,24.5
2022-08-26T10:32:55.029Z,24.5
2022-08-26T10:33:58.621Z,24.5
2022-08-26T10:34:55.032Z,24.5
2022-08-26T10:35:55.132Z,24.5
2022-08-26T10:37:14.004Z,24.5
2022-08-26T10:37:55.037Z,24.5
2022-08-26T10:38:55.233Z,24.5
2022-08-26T10:39:57.405Z,24.5
2022-08-26T10:40:55.069Z,24.5
2022-08-26T10:41:55.387Z,24.5
2022-08-26T10:42:55.063Z,24.5
2022-08-26T10:43:55.028Z,24.7
2022-08-26T10:44:58.492Z,24.7
2022-08-26T10:45:55.119Z,24.5
2022-08-26T10:46:55.232Z,24.7
2022-08-26T10:47:55.185Z,24.7
2022-08-26T10:48:55.434Z,24.7
2022-08-26T10:49:58.787Z,24.7
2022-08-26T10:50:55.068Z,24.5
2022-08-26T10:51:55.085Z,24.5
2022-08-26T10:52:55.108Z,24.5
2022-08-26T10:53:55.596Z,24.5
2022-08-26T10:54:55.060Z,24.5
2022-08-26T10:55:55.064Z,24.5
2022-08-26T10:56:55.090Z,24.5
2022-08-26T10:57:55.070Z,24.5
2022-08-26T10:58:55.086Z,24.7
2022-08-26T10:59:55.062Z,24.8
2022-08-26T11:00:55.215Z,24.8
2022-08-26T11:01:55.085Z,24.8
2022-08-26T11:02:55.070Z,24.8
2022-08-26T11:03:55.648Z,24.8
2022-08-26T11:04:55.072Z,24.8
2022-08-26T11:05:55.057Z,24.8
2022-08-26T11:06:55.053Z,24.9
2022-08-26T11:07:55.059Z,24.9
2022-08-26T11:08:55.080Z,24.8
2022-08-26T11:09:55.061Z,24.9
2022-08-26T11:10:55.090Z,24.9
2022-08-26T11:11:55.057Z,25.1
2022-08-26T11:12:55.051Z,25.1
2022-08-26T11:13:55.082Z,25.1
2022-08-26T11:14:58.998Z,25.1
2022-08-26T11:15:55.091Z,25.1
2022-08-26T11:16:55.090Z,25.2
2022-08-26T11:17:55.079Z,25.2
2022-08-26T11:18:55.057Z,25.2
2022-08-26T11:20:01.329Z,25.2
2022-08-26T11:20:55.089Z,25.3
2022-08-26T11:21:55.060Z,25.3
2022-08-26T11:22:55.068Z,25.3
2022-08-26T11:23:55.050Z,25.5
2022-08-26T11:24:55.080Z,25.5
2022-08-26T11:25:55.075Z,25.5
2022-08-26T11:26:56.464Z,25.5
2022-08-26T11:27:55.057Z,25.5
2022-08-26T11:28:55.055Z,25.5
2022-08-26T11:29:55.052Z,25.5
2022-08-26T11:30:57.973Z,25.5
2022-08-26T11:31:55.109Z,25.3
2022-08-26T11:32:55.064Z,25.3
2022-08-26T11:33:55.078Z,25.3
2022-08-26T11:34:55.110Z,25.5
2022-08-26T11:35:55.067Z,25.5
2022-08-26T11:36:55.061Z,25.6
2022-08-26T11:37:55.077Z,25.6
2022-08-26T11:38:55.071Z,25.7
2022-08-26T11:39:55.605Z,25.7
2022-08-26T11:40:55.127Z,25.7
2022-08-26T11:41:55.055Z,25.9
2022-08-26T11:42:55.025Z,25.9
2022-08-26T11:43:55.089Z,26
2022-08-26T11:44:56.210Z,26
2022-08-26T11:45:55.142Z,26.1
2022-08-26T11:46:55.156Z,26.1
2022-08-26T11:47:55.487Z,26.1
2022-08-26T11:48:55.676Z,26.1
2022-08-26T11:49:56.287Z,26.1
2022-08-26T11:50:55.055Z,26.1
2022-08-26T11:51:55.056Z,26.1
2022-08-26T11:52:55.066Z,26.1
2022-08-26T11:53:55.044Z,26.1
2022-08-26T11:54:55.122Z,26.1
2022-08-26T11:55:55.051Z,26.1
2022-08-26T11:56:55.139Z,26.1
2022-08-26T11:57:55.033Z,26.1
2022-08-26T11:58:55.151Z,26.1
2022-08-26T11:59:55.193Z,26.1
2022-08-26T12:00:55.488Z,26.1
2022-08-26T12:01:55.042Z,26.1
2022-08-26T12:02:55.294Z,26.1
2022-08-26T12:03:55.132Z,26.3
2022-08-26T12:04:55.035Z,26.3
2022-08-26T12:05:55.171Z,26.3
2022-08-26T12:06:55.046Z,26.4
2022-08-26T12:07:55.115Z,26.4
2022-08-26T12:08:55.443Z,26.4
2022-08-26T12:09:55.046Z,26.4
2022-08-26T12:10:56.063Z,26.4
2022-08-26T12:11:55.610Z,26.6
2022-08-26T12:12:55.138Z,26.6
2022-08-26T12:13:55.060Z,26.6
2022-08-26T12:14:55.098Z,26.6
2022-08-26T12:15:55.618Z,26.6
2022-08-26T12:16:55.198Z,26.7
2022-08-26T12:17:55.065Z,26.7
2022-08-26T12:18:55.047Z,26.7
2022-08-26T12:19:55.069Z,26.7
2022-08-26T12:20:55.057Z,26.7
2022-08-26T12:21:55.107Z,26.7
2022-08-26T12:22:55.069Z,26.7
2022-08-26T12:23:55.069Z,26.7
2022-08-26T12:24:55.083Z,26.7
2022-08-26T12:25:55.056Z,26.6
2022-08-26T12:26:55.061Z,26.6
2022-08-26T12:27:55.065Z,26.6
2022-08-26T12:28:55.069Z,26.6
2022-08-26T12:29:55.061Z,26.6
2022-08-26T12:30:55.078Z,26.6
2022-08-26T12:31:55.115Z,26.6
2022-08-26T12:32:58.292Z,26.6
2022-08-26T12:33:55.064Z,26.6
2022-08-26T12:34:55.187Z,26.6
2022-08-26T12:35:56.476Z,26.4
2022-08-26T12:36:55.120Z,26.4
2022-08-26T12:37:55.069Z,26.6
2022-08-26T12:38:58.065Z,26.6
2022-08-26T12:39:55.088Z,26.6
2022-08-26T12:40:55.074Z,26.6
2022-08-26T12:41:55.064Z,26.6
2022-08-26T12:42:55.169Z,26.6
2022-08-26T12:43:55.072Z,26.6
2022-08-26T12:44:55.072Z,26.6
2022-08-26T12:45:55.134Z,26.6
2022-08-26T12:46:55.048Z,26.4
2022-08-26T12:47:55.072Z,26.4
2022-08-26T12:48:55.069Z,26.4
2022-08-26T12:49:55.058Z,26.4
2022-08-26T12:50:55.088Z,26.4
2022-08-26T12:51:55.067Z,26.4
2022-08-26T12:52:55.072Z,26.3
2022-08-26T12:53:55.071Z,26.4
2022-08-26T12:54:56.915Z,26.3
2022-08-26T12:55:55.057Z,26.3
2022-08-26T12:56:55.063Z,26.3
2022-08-26T12:57:55.066Z,26.3
2022-08-26T12:58:55.074Z,26.4
2022-08-26T12:59:55.056Z,26.4
2022-08-26T13:00:55.109Z,26.4
2022-08-26T13:01:55.269Z,26.4
2022-08-26T13:02:55.073Z,26.4
2022-08-26T13:03:55.099Z,26.6
2022-08-26T13:04:58.715Z,26.6
2022-08-26T13:05:55.056Z,26.6
2022-08-26T13:06:55.054Z,26.6
2022-08-26T13:07:55.063Z,26.6
2022-08-26T13:08:55.067Z,26.6
2022-08-26T13:09:55.062Z,26.6
2022-08-26T13:10:55.068Z,26.4
2022-08-26T13:11:55.072Z,26.4
2022-08-26T13:12:55.066Z,26.4
2022-08-26T13:13:55.075Z,26.4
2022-08-26T13:14:55.081Z,26.4
2022-08-26T13:15:55.176Z,26.4
2022-08-26T13:16:55.068Z,26.4
2022-08-26T13:17:55.064Z,26.4
2022-08-26T13:18:55.066Z,26.6
2022-08-26T13:19:55.490Z,26.6
2022-08-26T13:20:55.063Z,26.6
2022-08-26T13:21:55.055Z,26.6
2022-08-26T13:22:58.651Z,26.6